sensor_id;sensor_type;location;lat;lon;timestamp;temperature;humidity
51801;DHT22;37855;53.204;6.568;2023-04-10T00:02:22;9.30;63.30
51801;DHT22;37855;53.204;6.568;2023-04-10T00:04:48;9.40;63.30
51801;DHT22;37855;53.204;6.568;2023-04-10T00:07:13;9.30;63.30
51801;DHT22;37855;53.204;6.568;2023-04-10T00:09:39;9.30;63.30
51801;DHT22;37855;53.204;6.568;2023-04-10T00:12:05;9.30;63.20
51801;DHT22;37855;53.204;6.568;2023-04-10T00:14:31;9.30;63.20
51801;DHT22;37855;53.204;6.568;2023-04-10T00:16:57;9.30;63.10
51801;DHT22;37855;53.204;6.568;2023-04-10T00:19:23;9.30;63.10
51801;DHT22;37855;53.204;6.568;2023-04-10T00:21:49;9.30;63.10
51801;DHT22;37855;53.204;6.568;2023-04-10T00:24:14;9.20;63.10
51801;DHT22;37855;53.204;6.568;2023-04-10T00:26:41;9.20;63.10
51801;DHT22;37855;53.204;6.568;2023-04-10T00:29:06;9.20;63.10
51801;DHT22;37855;53.204;6.568;2023-04-10T00:31:32;9.20;63.10
51801;DHT22;37855;53.204;6.568;2023-04-10T00:33:58;9.20;63.10
51801;DHT22;37855;53.204;6.568;2023-04-10T00:36:26;9.10;63.00
51801;DHT22;37855;53.204;6.568;2023-04-10T00:38:52;9.10;63.00
51801;DHT22;37855;53.204;6.568;2023-04-10T00:41:18;9.10;63.10
51801;DHT22;37855;53.204;6.568;2023-04-10T00:43:44;9.10;63.00
51801;DHT22;37855;53.204;6.568;2023-04-10T00:46:10;9.10;63.00
51801;DHT22;37855;53.204;6.568;2023-04-10T00:48:36;9.10;63.00
51801;DHT22;37855;53.204;6.568;2023-04-10T00:51:03;9.00;63.10
51801;DHT22;37855;53.204;6.568;2023-04-10T00:53:29;9.00;63.20
51801;DHT22;37855;53.204;6.568;2023-04-10T00:55:55;9.00;63.20
51801;DHT22;37855;53.204;6.568;2023-04-10T00:58:21;9.00;63.30
51801;DHT22;37855;53.204;6.568;2023-04-10T01:00:47;9.00;63.30
51801;DHT22;37855;53.204;6.568;2023-04-10T01:03:15;8.90;63.30
51801;DHT22;37855;53.204;6.568;2023-04-10T01:06:17;8.90;63.30
51801;DHT22;37855;53.204;6.568;2023-04-10T01:11:26;8.90;63.40
51801;DHT22;37855;53.204;6.568;2023-04-10T01:14:20;8.80;63.40
51801;DHT22;37855;53.204;6.568;2023-04-10T01:16:54;8.80;63.50
51801;DHT22;37855;53.204;6.568;2023-04-10T01:20:11;8.80;63.40
51801;DHT22;37855;53.204;6.568;2023-04-10T01:22:12;8.80;63.50
51801;DHT22;37855;53.204;6.568;2023-04-10T01:24:55;8.80;63.50
51801;DHT22;37855;53.204;6.568;2023-04-10T01:30:16;8.70;63.60
51801;DHT22;37855;53.204;6.568;2023-04-10T01:32:43;8.70;63.60
51801;DHT22;37855;53.204;6.568;2023-04-10T01:35:09;8.60;63.60
51801;DHT22;37855;53.204;6.568;2023-04-10T01:37:41;8.60;63.70
51801;DHT22;37855;53.204;6.568;2023-04-10T01:40:09;8.60;63.80
51801;DHT22;37855;53.204;6.568;2023-04-10T01:42:50;8.60;63.80
51801;DHT22;37855;53.204;6.568;2023-04-10T01:45:24;8.60;63.90
51801;DHT22;37855;53.204;6.568;2023-04-10T01:47:52;8.60;63.90
51801;DHT22;37855;53.204;6.568;2023-04-10T01:50:19;8.50;63.90
51801;DHT22;37855;53.204;6.568;2023-04-10T01:52:46;8.50;63.90
51801;DHT22;37855;53.204;6.568;2023-04-10T01:55:13;8.50;63.90
51801;DHT22;37855;53.204;6.568;2023-04-10T01:57:38;8.50;64.00
51801;DHT22;37855;53.204;6.568;2023-04-10T02:00:05;8.40;64.00
51801;DHT22;37855;53.204;6.568;2023-04-10T02:02:32;8.40;64.00
51801;DHT22;37855;53.204;6.568;2023-04-10T02:04:58;8.40;64.00
51801;DHT22;37855;53.204;6.568;2023-04-10T02:07:38;8.40;64.00
51801;DHT22;37855;53.204;6.568;2023-04-10T02:10:18;8.40;64.10
51801;DHT22;37855;53.204;6.568;2023-04-10T02:12:56;8.40;64.10
51801;DHT22;37855;53.204;6.568;2023-04-10T02:15:23;8.30;64.10
51801;DHT22;37855;53.204;6.568;2023-04-10T02:17:54;8.30;64.20
51801;DHT22;37855;53.204;6.568;2023-04-10T02:20:21;8.30;64.20
51801;DHT22;37855;53.204;6.568;2023-04-10T02:22:48;8.30;64.20
51801;DHT22;37855;53.204;6.568;2023-04-10T02:25:15;8.20;64.20
51801;DHT22;37855;53.204;6.568;2023-04-10T02:27:41;8.20;64.20
51801;DHT22;37855;53.204;6.568;2023-04-10T02:30:07;8.20;64.20
51801;DHT22;37855;53.204;6.568;2023-04-10T02:32:33;8.20;64.20
51801;DHT22;37855;53.204;6.568;2023-04-10T02:34:59;8.20;64.30
51801;DHT22;37855;53.204;6.568;2023-04-10T02:37:26;8.20;64.30
51801;DHT22;37855;53.204;6.568;2023-04-10T02:39:52;8.10;64.30
51801;DHT22;37855;53.204;6.568;2023-04-10T02:42:19;8.10;64.30
51801;DHT22;37855;53.204;6.568;2023-04-10T02:44:45;8.10;64.30
51801;DHT22;37855;53.204;6.568;2023-04-10T02:47:11;8.10;64.30
51801;DHT22;37855;53.204;6.568;2023-04-10T02:49:37;8.10;64.40
51801;DHT22;37855;53.204;6.568;2023-04-10T02:52:02;8.10;64.40
51801;DHT22;37855;53.204;6.568;2023-04-10T02:54:28;8.00;64.30
51801;DHT22;37855;53.204;6.568;2023-04-10T02:56:55;8.10;64.30
51801;DHT22;37855;53.204;6.568;2023-04-10T02:59:22;8.00;64.40
51801;DHT22;37855;53.204;6.568;2023-04-10T03:01:52;8.00;64.30
51801;DHT22;37855;53.204;6.568;2023-04-10T03:04:17;8.00;64.20
51801;DHT22;37855;53.204;6.568;2023-04-10T03:06:43;8.00;64.30
51801;DHT22;37855;53.204;6.568;2023-04-10T03:09:09;8.00;64.20
51801;DHT22;37855;53.204;6.568;2023-04-10T03:11:35;8.00;64.10
51801;DHT22;37855;53.204;6.568;2023-04-10T03:14:01;8.00;64.10
51801;DHT22;37855;53.204;6.568;2023-04-10T03:16:26;8.00;64.10
51801;DHT22;37855;53.204;6.568;2023-04-10T03:18:53;8.00;64.00
51801;DHT22;37855;53.204;6.568;2023-04-10T03:21:19;8.00;64.00
51801;DHT22;37855;53.204;6.568;2023-04-10T03:23:45;8.00;63.90
51801;DHT22;37855;53.204;6.568;2023-04-10T03:26:11;8.00;64.00
51801;DHT22;37855;53.204;6.568;2023-04-10T03:28:37;7.90;64.00
51801;DHT22;37855;53.204;6.568;2023-04-10T03:31:04;7.90;64.00
51801;DHT22;37855;53.204;6.568;2023-04-10T03:33:30;7.90;63.90
51801;DHT22;37855;53.204;6.568;2023-04-10T03:35:56;7.90;63.90
51801;DHT22;37855;53.204;6.568;2023-04-10T03:38:22;7.90;63.90
51801;DHT22;37855;53.204;6.568;2023-04-10T03:40:48;7.90;63.90
51801;DHT22;37855;53.204;6.568;2023-04-10T03:43:14;7.80;64.00
51801;DHT22;37855;53.204;6.568;2023-04-10T03:45:39;7.80;64.00
51801;DHT22;37855;53.204;6.568;2023-04-10T03:48:05;7.80;64.10
51801;DHT22;37855;53.204;6.568;2023-04-10T03:50:31;7.80;64.00
51801;DHT22;37855;53.204;6.568;2023-04-10T03:52:56;7.70;64.20
51801;DHT22;37855;53.204;6.568;2023-04-10T03:55:22;7.70;64.20
51801;DHT22;37855;53.204;6.568;2023-04-10T03:57:49;7.70;64.20
51801;DHT22;37855;53.204;6.568;2023-04-10T04:00:15;7.70;64.20
51801;DHT22;37855;53.204;6.568;2023-04-10T04:02:44;7.70;64.20
51801;DHT22;37855;53.204;6.568;2023-04-10T04:05:10;7.70;64.30
51801;DHT22;37855;53.204;6.568;2023-04-10T04:07:36;7.70;64.30
51801;DHT22;37855;53.204;6.568;2023-04-10T04:10:02;7.60;64.30
51801;DHT22;37855;53.204;6.568;2023-04-10T04:12:28;7.60;64.40
51801;DHT22;37855;53.204;6.568;2023-04-10T04:14:53;7.60;64.50
51801;DHT22;37855;53.204;6.568;2023-04-10T04:17:19;7.60;64.50
51801;DHT22;37855;53.204;6.568;2023-04-10T04:19:45;7.50;64.60
51801;DHT22;37855;53.204;6.568;2023-04-10T04:22:14;7.50;64.60
51801;DHT22;37855;53.204;6.568;2023-04-10T04:24:39;7.50;64.70
51801;DHT22;37855;53.204;6.568;2023-04-10T04:27:05;7.50;64.70
51801;DHT22;37855;53.204;6.568;2023-04-10T04:29:31;7.50;64.80
51801;DHT22;37855;53.204;6.568;2023-04-10T04:31:57;7.50;64.80
51801;DHT22;37855;53.204;6.568;2023-04-10T04:34:24;7.50;64.80
51801;DHT22;37855;53.204;6.568;2023-04-10T04:36:49;7.50;64.80
51801;DHT22;37855;53.204;6.568;2023-04-10T04:39:15;7.50;64.90
51801;DHT22;37855;53.204;6.568;2023-04-10T04:41:41;7.50;64.80
51801;DHT22;37855;53.204;6.568;2023-04-10T04:44:07;7.50;64.80
51801;DHT22;37855;53.204;6.568;2023-04-10T04:46:33;7.50;64.80
51801;DHT22;37855;53.204;6.568;2023-04-10T04:49:02;7.50;64.80
51801;DHT22;37855;53.204;6.568;2023-04-10T04:51:28;7.50;64.80
51801;DHT22;37855;53.204;6.568;2023-04-10T04:53:53;7.50;64.80
51801;DHT22;37855;53.204;6.568;2023-04-10T04:56:19;7.50;64.80
51801;DHT22;37855;53.204;6.568;2023-04-10T04:58:44;7.50;64.80
51801;DHT22;37855;53.204;6.568;2023-04-10T05:01:10;7.50;64.80
51801;DHT22;37855;53.204;6.568;2023-04-10T05:03:37;7.50;64.80
51801;DHT22;37855;53.204;6.568;2023-04-10T05:06:03;7.50;64.90
51801;DHT22;37855;53.204;6.568;2023-04-10T05:08:31;7.50;64.80
51801;DHT22;37855;53.204;6.568;2023-04-10T05:11:00;7.60;64.70
51801;DHT22;37855;53.204;6.568;2023-04-10T05:13:26;7.60;64.70
51801;DHT22;37855;53.204;6.568;2023-04-10T05:15:51;7.60;64.70
51801;DHT22;37855;53.204;6.568;2023-04-10T05:18:17;7.70;64.60
51801;DHT22;37855;53.204;6.568;2023-04-10T05:20:48;7.70;64.60
51801;DHT22;37855;53.204;6.568;2023-04-10T05:23:14;7.70;64.60
51801;DHT22;37855;53.204;6.568;2023-04-10T05:25:40;7.70;64.60
51801;DHT22;37855;53.204;6.568;2023-04-10T05:28:06;7.80;64.40
51801;DHT22;37855;53.204;6.568;2023-04-10T05:30:32;7.80;64.40
51801;DHT22;37855;53.204;6.568;2023-04-10T05:32:57;7.90;64.40
51801;DHT22;37855;53.204;6.568;2023-04-10T05:35:24;7.90;64.40
51801;DHT22;37855;53.204;6.568;2023-04-10T05:37:50;8.00;64.30
51801;DHT22;37855;53.204;6.568;2023-04-10T05:40:16;8.00;64.30
51801;DHT22;37855;53.204;6.568;2023-04-10T05:42:41;8.10;64.20
51801;DHT22;37855;53.204;6.568;2023-04-10T05:45:08;8.10;64.20
51801;DHT22;37855;53.204;6.568;2023-04-10T05:47:33;8.10;64.20
51801;DHT22;37855;53.204;6.568;2023-04-10T05:49:59;8.20;64.10
51801;DHT22;37855;53.204;6.568;2023-04-10T05:52:25;8.20;64.00
51801;DHT22;37855;53.204;6.568;2023-04-10T05:54:52;8.30;64.00
51801;DHT22;37855;53.204;6.568;2023-04-10T05:57:17;8.30;63.90
51801;DHT22;37855;53.204;6.568;2023-04-10T05:59:43;8.40;63.90
51801;DHT22;37855;53.204;6.568;2023-04-10T06:02:08;8.40;63.90
51801;DHT22;37855;53.204;6.568;2023-04-10T06:04:34;8.40;63.80
51801;DHT22;37855;53.204;6.568;2023-04-10T06:07:00;8.50;63.70
51801;DHT22;37855;53.204;6.568;2023-04-10T06:09:27;8.50;63.60
51801;DHT22;37855;53.204;6.568;2023-04-10T06:11:53;8.60;63.40
51801;DHT22;37855;53.204;6.568;2023-04-10T06:14:19;8.60;63.30
51801;DHT22;37855;53.204;6.568;2023-04-10T06:16:45;8.70;63.30
51801;DHT22;37855;53.204;6.568;2023-04-10T06:19:11;8.70;63.10
51801;DHT22;37855;53.204;6.568;2023-04-10T06:21:37;8.80;63.10
51801;DHT22;37855;53.204;6.568;2023-04-10T06:24:02;8.90;62.90
51801;DHT22;37855;53.204;6.568;2023-04-10T06:26:28;9.00;62.80
51801;DHT22;37855;53.204;6.568;2023-04-10T06:28:54;9.00;62.70
51801;DHT22;37855;53.204;6.568;2023-04-10T06:31:20;9.10;62.70
51801;DHT22;37855;53.204;6.568;2023-04-10T06:33:49;9.20;62.50
51801;DHT22;37855;53.204;6.568;2023-04-10T06:36:15;9.20;62.30
51801;DHT22;37855;53.204;6.568;2023-04-10T06:38:41;9.30;62.30
51801;DHT22;37855;53.204;6.568;2023-04-10T06:41:07;9.30;62.20
51801;DHT22;37855;53.204;6.568;2023-04-10T06:43:37;9.40;62.20
51801;DHT22;37855;53.204;6.568;2023-04-10T06:46:03;9.40;62.20
51801;DHT22;37855;53.204;6.568;2023-04-10T06:48:30;9.40;62.20
51801;DHT22;37855;53.204;6.568;2023-04-10T06:50:56;9.50;62.10
51801;DHT22;37855;53.204;6.568;2023-04-10T06:53:24;9.60;62.00
51801;DHT22;37855;53.204;6.568;2023-04-10T06:55:50;9.70;61.80
51801;DHT22;37855;53.204;6.568;2023-04-10T06:58:16;9.70;61.70
51801;DHT22;37855;53.204;6.568;2023-04-10T07:00:42;9.80;61.90
51801;DHT22;37855;53.204;6.568;2023-04-10T07:03:07;9.90;61.80
51801;DHT22;37855;53.204;6.568;2023-04-10T07:05:33;10.00;61.90
51801;DHT22;37855;53.204;6.568;2023-04-10T07:07:59;10.10;61.90
51801;DHT22;37855;53.204;6.568;2023-04-10T07:10:25;10.20;62.00
51801;DHT22;37855;53.204;6.568;2023-04-10T07:12:51;10.20;61.80
51801;DHT22;37855;53.204;6.568;2023-04-10T07:15:17;10.30;61.40
51801;DHT22;37855;53.204;6.568;2023-04-10T07:17:42;10.30;61.20
51801;DHT22;37855;53.204;6.568;2023-04-10T07:20:11;10.20;60.80
51801;DHT22;37855;53.204;6.568;2023-04-10T07:22:37;10.30;60.70
51801;DHT22;37855;53.204;6.568;2023-04-10T07:25:12;10.30;60.70
51801;DHT22;37855;53.204;6.568;2023-04-10T07:27:38;10.30;60.50
51801;DHT22;37855;53.204;6.568;2023-04-10T07:30:05;10.40;60.30
51801;DHT22;37855;53.204;6.568;2023-04-10T07:32:31;10.40;60.30
51801;DHT22;37855;53.204;6.568;2023-04-10T07:34:59;10.50;60.20
51801;DHT22;37855;53.204;6.568;2023-04-10T07:37:25;10.50;60.00
51801;DHT22;37855;53.204;6.568;2023-04-10T07:39:51;10.60;59.90
51801;DHT22;37855;53.204;6.568;2023-04-10T07:42:16;10.60;59.70
51801;DHT22;37855;53.204;6.568;2023-04-10T07:44:42;10.70;59.60
51801;DHT22;37855;53.204;6.568;2023-04-10T07:47:10;10.80;59.50
51801;DHT22;37855;53.204;6.568;2023-04-10T07:49:36;10.80;59.10
51801;DHT22;37855;53.204;6.568;2023-04-10T07:52:02;10.90;59.00
51801;DHT22;37855;53.204;6.568;2023-04-10T07:54:31;11.10;58.80
51801;DHT22;37855;53.204;6.568;2023-04-10T07:56:57;11.20;58.60
51801;DHT22;37855;53.204;6.568;2023-04-10T07:59:23;11.30;58.10
51801;DHT22;37855;53.204;6.568;2023-04-10T08:01:48;11.40;58.10
51801;DHT22;37855;53.204;6.568;2023-04-10T08:04:14;11.50;57.90
51801;DHT22;37855;53.204;6.568;2023-04-10T08:06:39;11.60;57.80
51801;DHT22;37855;53.204;6.568;2023-04-10T08:09:05;11.70;57.50
51801;DHT22;37855;53.204;6.568;2023-04-10T08:11:33;11.80;57.30
51801;DHT22;37855;53.204;6.568;2023-04-10T08:14:00;11.90;57.10
51801;DHT22;37855;53.204;6.568;2023-04-10T08:16:27;11.90;56.90
51801;DHT22;37855;53.204;6.568;2023-04-10T08:18:54;12.00;56.70
51801;DHT22;37855;53.204;6.568;2023-04-10T08:21:21;12.00;56.60
51801;DHT22;37855;53.204;6.568;2023-04-10T08:23:49;12.10;56.60
51801;DHT22;37855;53.204;6.568;2023-04-10T08:26:15;12.10;56.50
51801;DHT22;37855;53.204;6.568;2023-04-10T08:28:41;12.10;56.40
51801;DHT22;37855;53.204;6.568;2023-04-10T08:31:12;12.20;56.30
51801;DHT22;37855;53.204;6.568;2023-04-10T08:33:38;12.30;55.90
51801;DHT22;37855;53.204;6.568;2023-04-10T08:36:04;12.30;55.80
51801;DHT22;37855;53.204;6.568;2023-04-10T08:38:30;12.40;56.10
51801;DHT22;37855;53.204;6.568;2023-04-10T08:40:56;12.50;56.10
51801;DHT22;37855;53.204;6.568;2023-04-10T08:43:22;12.60;55.80
51801;DHT22;37855;53.204;6.568;2023-04-10T08:45:50;12.70;55.60
51801;DHT22;37855;53.204;6.568;2023-04-10T08:48:18;12.80;55.70
51801;DHT22;37855;53.204;6.568;2023-04-10T08:50:44;12.90;55.60
51801;DHT22;37855;53.204;6.568;2023-04-10T08:53:12;12.90;55.40
51801;DHT22;37855;53.204;6.568;2023-04-10T08:55:39;13.00;55.30
51801;DHT22;37855;53.204;6.568;2023-04-10T08:58:06;13.00;55.20
51801;DHT22;37855;53.204;6.568;2023-04-10T09:00:35;13.10;55.10
51801;DHT22;37855;53.204;6.568;2023-04-10T09:03:08;13.20;54.60
51801;DHT22;37855;53.204;6.568;2023-04-10T09:05:36;13.20;54.20
51801;DHT22;37855;53.204;6.568;2023-04-10T09:08:03;13.30;54.50
51801;DHT22;37855;53.204;6.568;2023-04-10T09:10:29;13.40;54.20
51801;DHT22;37855;53.204;6.568;2023-04-10T09:12:55;13.50;54.00
51801;DHT22;37855;53.204;6.568;2023-04-10T09:15:21;13.50;53.50
51801;DHT22;37855;53.204;6.568;2023-04-10T09:18:01;13.50;53.30
51801;DHT22;37855;53.204;6.568;2023-04-10T09:20:31;13.60;53.40
51801;DHT22;37855;53.204;6.568;2023-04-10T09:22:57;13.60;53.40
51801;DHT22;37855;53.204;6.568;2023-04-10T09:25:32;13.70;53.40
51801;DHT22;37855;53.204;6.568;2023-04-10T09:28:06;13.80;53.50
51801;DHT22;37855;53.204;6.568;2023-04-10T09:30:37;13.90;53.40
51801;DHT22;37855;53.204;6.568;2023-04-10T09:33:23;14.00;52.90
51801;DHT22;37855;53.204;6.568;2023-04-10T09:35:53;14.00;53.00
51801;DHT22;37855;53.204;6.568;2023-04-10T09:38:20;14.00;52.50
51801;DHT22;37855;53.204;6.568;2023-04-10T09:40:47;14.10;52.70
51801;DHT22;37855;53.204;6.568;2023-04-10T09:43:25;14.10;52.50
51801;DHT22;37855;53.204;6.568;2023-04-10T09:45:52;14.20;52.70
51801;DHT22;37855;53.204;6.568;2023-04-10T09:48:18;14.30;52.70
51801;DHT22;37855;53.204;6.568;2023-04-10T09:50:44;14.40;52.60
51801;DHT22;37855;53.204;6.568;2023-04-10T09:53:17;14.50;52.40
51801;DHT22;37855;53.204;6.568;2023-04-10T09:55:45;14.60;52.30
51801;DHT22;37855;53.204;6.568;2023-04-10T09:58:12;14.60;51.80
51801;DHT22;37855;53.204;6.568;2023-04-10T10:00:42;14.70;51.90
51801;DHT22;37855;53.204;6.568;2023-04-10T10:03:15;14.80;51.40
51801;DHT22;37855;53.204;6.568;2023-04-10T10:05:50;14.80;51.50
51801;DHT22;37855;53.204;6.568;2023-04-10T10:08:19;14.90;51.60
51801;DHT22;37855;53.204;6.568;2023-04-10T10:10:47;15.00;51.50
51801;DHT22;37855;53.204;6.568;2023-04-10T10:13:23;15.00;51.50
51801;DHT22;37855;53.204;6.568;2023-04-10T10:16:01;15.10;50.80
51801;DHT22;37855;53.204;6.568;2023-04-10T10:18:46;15.20;50.60
51801;DHT22;37855;53.204;6.568;2023-04-10T10:21:16;15.20;50.60
51801;DHT22;37855;53.204;6.568;2023-04-10T10:23:43;15.30;49.90
51801;DHT22;37855;53.204;6.568;2023-04-10T10:26:11;15.30;50.00
51801;DHT22;37855;53.204;6.568;2023-04-10T10:28:39;15.30;49.70
51801;DHT22;37855;53.204;6.568;2023-04-10T10:31:06;15.30;50.00
51801;DHT22;37855;53.204;6.568;2023-04-10T10:33:34;15.30;49.50
51801;DHT22;37855;53.204;6.568;2023-04-10T10:36:02;15.20;49.50
51801;DHT22;37855;53.204;6.568;2023-04-10T10:38:30;15.20;50.10
51801;DHT22;37855;53.204;6.568;2023-04-10T10:43:52;15.30;50.70
51801;DHT22;37855;53.204;6.568;2023-04-10T10:46:35;15.40;50.60
51801;DHT22;37855;53.204;6.568;2023-04-10T10:49:02;15.40;50.40
51801;DHT22;37855;53.204;6.568;2023-04-10T10:51:51;15.30;49.60
51801;DHT22;37855;53.204;6.568;2023-04-10T10:54:27;15.30;49.70
51801;DHT22;37855;53.204;6.568;2023-04-10T10:56:53;15.20;49.20
51801;DHT22;37855;53.204;6.568;2023-04-10T11:02:14;15.20;49.90
51801;DHT22;37855;53.204;6.568;2023-04-10T11:04:47;15.20;48.90
51801;DHT22;37855;53.204;6.568;2023-04-10T11:07:14;15.20;49.30
51801;DHT22;37855;53.204;6.568;2023-04-10T11:12:12;15.20;49.70
51801;DHT22;37855;53.204;6.568;2023-04-10T11:14:39;15.30;49.70
51801;DHT22;37855;53.204;6.568;2023-04-10T11:17:06;15.30;49.60
51801;DHT22;37855;53.204;6.568;2023-04-10T11:19:58;15.30;50.00
51801;DHT22;37855;53.204;6.568;2023-04-10T11:22:25;15.40;49.60
51801;DHT22;37855;53.204;6.568;2023-04-10T11:24:59;15.40;49.70
51801;DHT22;37855;53.204;6.568;2023-04-10T11:27:40;15.50;49.40
51801;DHT22;37855;53.204;6.568;2023-04-10T11:30:30;15.60;49.40
51801;DHT22;37855;53.204;6.568;2023-04-10T11:32:57;15.60;49.20
51801;DHT22;37855;53.204;6.568;2023-04-10T11:35:25;15.60;48.90
51801;DHT22;37855;53.204;6.568;2023-04-10T11:37:51;15.60;49.20
51801;DHT22;37855;53.204;6.568;2023-04-10T11:40:32;15.60;49.30
51801;DHT22;37855;53.204;6.568;2023-04-10T11:43:13;15.60;49.30
51801;DHT22;37855;53.204;6.568;2023-04-10T11:45:39;15.70;49.30
51801;DHT22;37855;53.204;6.568;2023-04-10T11:48:05;15.70;49.50
51801;DHT22;37855;53.204;6.568;2023-04-10T11:50:32;15.70;49.60
51801;DHT22;37855;53.204;6.568;2023-04-10T11:53:00;15.80;49.60
51801;DHT22;37855;53.204;6.568;2023-04-10T11:55:36;15.80;49.40
51801;DHT22;37855;53.204;6.568;2023-04-10T11:58:02;15.80;49.40
51801;DHT22;37855;53.204;6.568;2023-04-10T12:00:28;15.90;49.50
51801;DHT22;37855;53.204;6.568;2023-04-10T12:02:54;15.90;49.50
51801;DHT22;37855;53.204;6.568;2023-04-10T12:05:19;16.00;49.50
51801;DHT22;37855;53.204;6.568;2023-04-10T12:07:47;16.10;49.30
51801;DHT22;37855;53.204;6.568;2023-04-10T12:10:12;16.10;49.10
51801;DHT22;37855;53.204;6.568;2023-04-10T12:12:38;16.20;48.90
51801;DHT22;37855;53.204;6.568;2023-04-10T12:15:27;16.20;48.80
51801;DHT22;37855;53.204;6.568;2023-04-10T12:17:53;16.30;48.60
51801;DHT22;37855;53.204;6.568;2023-04-10T12:20:20;16.30;48.60
51801;DHT22;37855;53.204;6.568;2023-04-10T12:22:48;16.40;48.30
51801;DHT22;37855;53.204;6.568;2023-04-10T12:25:14;16.50;48.50
51801;DHT22;37855;53.204;6.568;2023-04-10T12:27:48;16.60;48.50
51801;DHT22;37855;53.204;6.568;2023-04-10T12:30:15;16.80;48.70
51801;DHT22;37855;53.204;6.568;2023-04-10T12:32:40;16.90;48.60
51801;DHT22;37855;53.204;6.568;2023-04-10T12:35:15;17.00;48.40
51801;DHT22;37855;53.204;6.568;2023-04-10T12:37:50;17.00;48.10
51801;DHT22;37855;53.204;6.568;2023-04-10T12:40:17;17.00;48.00
51801;DHT22;37855;53.204;6.568;2023-04-10T12:42:46;16.90;47.90
51801;DHT22;37855;53.204;6.568;2023-04-10T12:45:12;16.90;47.90
51801;DHT22;37855;53.204;6.568;2023-04-10T12:47:48;16.80;48.00
51801;DHT22;37855;53.204;6.568;2023-04-10T12:50:18;16.80;48.20
51801;DHT22;37855;53.204;6.568;2023-04-10T12:53:04;16.70;47.70
51801;DHT22;37855;53.204;6.568;2023-04-10T12:55:35;16.60;48.30
51801;DHT22;37855;53.204;6.568;2023-04-10T12:58:15;16.50;48.40
51801;DHT22;37855;53.204;6.568;2023-04-10T13:00:42;16.50;48.60
51801;DHT22;37855;53.204;6.568;2023-04-10T13:03:08;16.40;48.60
51801;DHT22;37855;53.204;6.568;2023-04-10T13:05:33;16.30;48.70
51801;DHT22;37855;53.204;6.568;2023-04-10T13:07:59;16.20;49.10
51801;DHT22;37855;53.204;6.568;2023-04-10T13:10:25;16.20;49.20
51801;DHT22;37855;53.204;6.568;2023-04-10T13:12:51;16.20;48.30
51801;DHT22;37855;53.204;6.568;2023-04-10T13:15:16;16.20;49.20
51801;DHT22;37855;53.204;6.568;2023-04-10T13:17:42;16.20;49.30
51801;DHT22;37855;53.204;6.568;2023-04-10T13:20:11;16.10;49.00
51801;DHT22;37855;53.204;6.568;2023-04-10T13:22:37;16.10;49.50
51801;DHT22;37855;53.204;6.568;2023-04-10T13:25:04;16.10;49.50
51801;DHT22;37855;53.204;6.568;2023-04-10T13:27:30;16.10;49.20
51801;DHT22;37855;53.204;6.568;2023-04-10T13:29:55;16.10;49.70
51801;DHT22;37855;53.204;6.568;2023-04-10T13:32:21;16.10;49.80
51801;DHT22;37855;53.204;6.568;2023-04-10T13:34:47;16.00;50.20
51801;DHT22;37855;53.204;6.568;2023-04-10T13:37:12;16.00;50.00
51801;DHT22;37855;53.204;6.568;2023-04-10T13:39:38;16.10;50.10
51801;DHT22;37855;53.204;6.568;2023-04-10T13:42:04;16.10;50.10
51801;DHT22;37855;53.204;6.568;2023-04-10T13:44:29;16.00;50.20
51801;DHT22;37855;53.204;6.568;2023-04-10T13:46:55;16.00;50.10
51801;DHT22;37855;53.204;6.568;2023-04-10T13:49:22;16.00;50.20
51801;DHT22;37855;53.204;6.568;2023-04-10T13:51:48;16.00;50.20
51801;DHT22;37855;53.204;6.568;2023-04-10T13:54:14;16.00;50.30
51801;DHT22;37855;53.204;6.568;2023-04-10T13:56:42;16.00;50.30
51801;DHT22;37855;53.204;6.568;2023-04-10T13:59:08;16.00;50.40
51801;DHT22;37855;53.204;6.568;2023-04-10T14:01:34;15.90;50.70
51801;DHT22;37855;53.204;6.568;2023-04-10T14:03:59;15.90;50.40
51801;DHT22;37855;53.204;6.568;2023-04-10T14:06:25;15.90;50.50
51801;DHT22;37855;53.204;6.568;2023-04-10T14:08:51;15.90;50.70
51801;DHT22;37855;53.204;6.568;2023-04-10T14:11:17;15.80;50.80
51801;DHT22;37855;53.204;6.568;2023-04-10T14:13:43;15.80;50.40
51801;DHT22;37855;53.204;6.568;2023-04-10T14:16:08;15.70;50.80
51801;DHT22;37855;53.204;6.568;2023-04-10T14:18:35;15.70;51.20
51801;DHT22;37855;53.204;6.568;2023-04-10T14:21:01;15.70;51.00
51801;DHT22;37855;53.204;6.568;2023-04-10T14:23:26;15.60;51.20
51801;DHT22;37855;53.204;6.568;2023-04-10T14:25:52;15.60;51.20
51801;DHT22;37855;53.204;6.568;2023-04-10T14:28:18;15.60;51.40
51801;DHT22;37855;53.204;6.568;2023-04-10T14:30:49;15.60;51.60
51801;DHT22;37855;53.204;6.568;2023-04-10T14:33:16;15.60;51.50
51801;DHT22;37855;53.204;6.568;2023-04-10T14:35:43;15.60;51.50
51801;DHT22;37855;53.204;6.568;2023-04-10T14:38:09;15.50;51.70
51801;DHT22;37855;53.204;6.568;2023-04-10T14:40:35;15.50;51.90
51801;DHT22;37855;53.204;6.568;2023-04-10T14:43:04;15.50;51.90
51801;DHT22;37855;53.204;6.568;2023-04-10T14:45:30;15.40;52.00
51801;DHT22;37855;53.204;6.568;2023-04-10T14:47:57;15.40;52.10
51801;DHT22;37855;53.204;6.568;2023-04-10T14:50:22;15.30;52.00
51801;DHT22;37855;53.204;6.568;2023-04-10T14:52:49;15.30;51.80
51801;DHT22;37855;53.204;6.568;2023-04-10T14:55:15;15.30;52.00
51801;DHT22;37855;53.204;6.568;2023-04-10T14:57:40;15.30;52.10
51801;DHT22;37855;53.204;6.568;2023-04-10T15:00:07;15.20;52.20
51801;DHT22;37855;53.204;6.568;2023-04-10T15:02:32;15.20;52.20
51801;DHT22;37855;53.204;6.568;2023-04-10T15:04:58;15.20;52.40
51801;DHT22;37855;53.204;6.568;2023-04-10T15:07:24;15.20;52.40
51801;DHT22;37855;53.204;6.568;2023-04-10T15:09:56;15.20;52.60
51801;DHT22;37855;53.204;6.568;2023-04-10T15:12:22;15.10;53.30
51801;DHT22;37855;53.204;6.568;2023-04-10T15:14:49;15.10;53.80
51801;DHT22;37855;53.204;6.568;2023-04-10T15:17:15;15.10;54.00
51801;DHT22;37855;53.204;6.568;2023-04-10T15:19:41;15.10;54.50
51801;DHT22;37855;53.204;6.568;2023-04-10T15:22:06;15.00;55.50
51801;DHT22;37855;53.204;6.568;2023-04-10T15:24:32;14.90;55.90
51801;DHT22;37855;53.204;6.568;2023-04-10T15:26:58;14.80;56.30
51801;DHT22;37855;53.204;6.568;2023-04-10T15:29:23;14.70;56.50
51801;DHT22;37855;53.204;6.568;2023-04-10T15:31:49;14.70;56.80
51801;DHT22;37855;53.204;6.568;2023-04-10T15:34:16;14.60;57.20
51801;DHT22;37855;53.204;6.568;2023-04-10T15:36:41;14.50;57.60
51801;DHT22;37855;53.204;6.568;2023-04-10T15:39:09;14.40;58.00
51801;DHT22;37855;53.204;6.568;2023-04-10T15:41:35;14.40;57.50
51801;DHT22;37855;53.204;6.568;2023-04-10T15:44:04;14.30;57.80
51801;DHT22;37855;53.204;6.568;2023-04-10T15:46:31;14.20;58.00
51801;DHT22;37855;53.204;6.568;2023-04-10T15:48:58;14.20;58.20
51801;DHT22;37855;53.204;6.568;2023-04-10T15:51:24;14.10;58.60
51801;DHT22;37855;53.204;6.568;2023-04-10T15:53:51;14.10;58.80
51801;DHT22;37855;53.204;6.568;2023-04-10T15:56:17;14.10;59.00